Darstellungsparameter: Aktuell verwendete Einstellungen:
Skalierung der Graphiken ... ?
xyx+y,   Skalierungsfaktor:      Skalierung: Modus: x, Faktor: 1
Darstellungszeitraum ... ?
Vom - - bis: - -   Zeitraum: 28.02.2020 - 28.02.2020
Min/Max/Avg-Anzeige ... ?
Zeige MMA aktuell
Zeige MMA Monat
Zeige MMA alles
Zeige --A aktuell
Zeige --A Monat
Zeige --A alles
Keine MMA-Anzeige
MMA:
Keine MMA-Graphiken
MMA-Basis: 28.02.2020 - 28.02.2020
Quicknavigation für Darstellung... ?
Tage:      1T, 2T, 3T, 5T -1T -2T -3T -5T +1T +2T +3T +5T
Wochen: 1W, 2W, 3W -1W -2W -3W +1W +2W +3W
Monate: 1M, 3M, 6M -1M -3M -6M +1M +3M +6M
Jahre:    1J, 3J, 5J, 10J -1J -3J -5J -10J +1J +3J +5J +10J
Nutze für die Darstellung ... ?
Originaldaten oder Mittelwerte auf ...
Stundenbasis Tagesbasis Wochenbasis
Monatsbasis Jahresbasis      Datenbasis: Original-Daten
Darstellen als:
Statistik (Auto) Statistik J:M      Darstellung:
Zur Graphik,    zurück zur Übersicht aller Sensoren.
 
Tabellarische Datenbersicht: ?
 
Sensor: Nr:Datum:Temp:Feuchte:Taupunkt:
Aussen-T/F 1 28-02-2020 00:00:00 2.7 C 94 % 1.83 C
2 28-02-2020 00:05:00 2.7 C 93 % 1.68 C
3 28-02-2020 00:10:00 2.7 C 93 % 1.68 C
4 28-02-2020 00:15:00 2.8 C 93 % 1.78 C
5 28-02-2020 00:20:00 2.8 C 92 % 1.63 C
6 28-02-2020 00:25:00 2.8 C 92 % 1.63 C
7 28-02-2020 00:30:00 2.8 C 92 % 1.63 C
8 28-02-2020 00:35:00 2.8 C 92 % 1.63 C
9 28-02-2020 00:40:00 2.8 C 92 % 1.63 C
10 28-02-2020 00:45:00 2.7 C 93 % 1.68 C
11 28-02-2020 00:50:00 2.7 C 93 % 1.68 C
12 28-02-2020 00:55:00 2.7 C 93 % 1.68 C
13 28-02-2020 01:00:00 2.7 C 93 % 1.68 C
14 28-02-2020 01:05:00 2.7 C 93 % 1.68 C
15 28-02-2020 01:10:00 2.6 C 93 % 1.59 C
16 28-02-2020 01:15:00 2.5 C 93 % 1.49 C
17 28-02-2020 01:20:00 2.4 C 93 % 1.39 C
18 28-02-2020 01:25:00 2.4 C 94 % 1.54 C
19 28-02-2020 01:30:00 2.3 C 94 % 1.44 C
20 28-02-2020 01:35:00 2.3 C 94 % 1.44 C
21 28-02-2020 01:40:00 2.3 C 94 % 1.44 C
22 28-02-2020 01:45:00 2.3 C 94 % 1.44 C
23 28-02-2020 01:50:00 2.3 C 94 % 1.44 C
24 28-02-2020 01:55:00 2.3 C 94 % 1.44 C
25 28-02-2020 02:00:00 2.3 C 94 % 1.44 C
Sensor: Nr:Datum:Temp:Feuchte:Taupunkt:
Aussen-T/F 26 28-02-2020 02:05:00 2.3 C 94 % 1.44 C
27 28-02-2020 02:10:00 2.2 C 94 % 1.34 C
28 28-02-2020 02:15:00 2.2 C 94 % 1.34 C
29 28-02-2020 02:20:00 2.2 C 94 % 1.34 C
30 28-02-2020 02:25:00 2.2 C 95 % 1.48 C
31 28-02-2020 02:30:00 2.1 C 94 % 1.24 C
32 28-02-2020 02:35:00 2.1 C 94 % 1.24 C
33 28-02-2020 02:40:00 2.1 C 94 % 1.24 C
34 28-02-2020 02:45:00 2.1 C 94 % 1.24 C
35 28-02-2020 02:50:00 2.1 C 94 % 1.24 C
36 28-02-2020 02:55:00 2.1 C 94 % 1.24 C
37 28-02-2020 03:00:00 2.1 C 94 % 1.24 C
38 28-02-2020 03:05:00 2 C 94 % 1.14 C
39 28-02-2020 03:10:00 2 C 94 % 1.14 C
40 28-02-2020 03:15:00 2 C 94 % 1.14 C
41 28-02-2020 03:20:00 2 C 94 % 1.14 C
42 28-02-2020 03:25:00 1.9 C 94 % 1.04 C
43 28-02-2020 03:30:00 1.9 C 94 % 1.04 C
44 28-02-2020 03:35:00 1.8 C 94 % 0.94 C
45 28-02-2020 03:40:00 1.8 C 94 % 0.94 C
46 28-02-2020 03:45:00 1.8 C 94 % 0.94 C
47 28-02-2020 03:50:00 1.8 C 94 % 0.94 C
48 28-02-2020 03:55:00 1.7 C 94 % 0.84 C
49 28-02-2020 04:00:00 1.7 C 94 % 0.84 C
50 28-02-2020 04:05:00 1.7 C 94 % 0.84 C
Sensor: Nr:Datum:Temp:Feuchte:Taupunkt:
Aussen-T/F 51 28-02-2020 04:10:00 1.8 C 94 % 0.94 C
52 28-02-2020 04:15:00 1.8 C 94 % 0.94 C
53 28-02-2020 04:20:00 1.8 C 94 % 0.94 C
54 28-02-2020 04:25:00 1.8 C 94 % 0.94 C
55 28-02-2020 04:30:00 1.9 C 94 % 1.04 C
56 28-02-2020 04:35:00 1.9 C 94 % 1.04 C
57 28-02-2020 04:40:00 1.9 C 94 % 1.04 C
58 28-02-2020 04:45:00 1.9 C 94 % 1.04 C
59 28-02-2020 04:50:00 1.8 C 94 % 0.94 C
60 28-02-2020 04:55:00 1.8 C 94 % 0.94 C
61 28-02-2020 05:00:00 1.9 C 94 % 1.04 C
62 28-02-2020 05:05:00 1.8 C 94 % 0.94 C
63 28-02-2020 05:10:00 1.9 C 94 % 1.04 C
64 28-02-2020 05:15:00 1.8 C 94 % 0.94 C
65 28-02-2020 05:20:00 1.8 C 94 % 0.94 C
66 28-02-2020 05:25:00 1.7 C 94 % 0.84 C
67 28-02-2020 05:30:00 1.6 C 94 % 0.74 C
68 28-02-2020 05:35:00 1.6 C 94 % 0.74 C
69 28-02-2020 05:40:00 1.7 C 94 % 0.84 C
70 28-02-2020 05:45:00 1.7 C 94 % 0.84 C
71 28-02-2020 05:50:00 1.7 C 94 % 0.84 C
72 28-02-2020 05:55:00 1.6 C 94 % 0.74 C
73 28-02-2020 06:00:00 1.6 C 93 % 0.59 C
74 28-02-2020 06:05:00 1.6 C 94 % 0.74 C
75 28-02-2020 06:10:00 1.5 C 94 % 0.64 C
Sensor: Nr:Datum:Temp:Feuchte:Taupunkt:
Aussen-T/F 76 28-02-2020 06:15:00 1.4 C 93 % 0.4 C
77 28-02-2020 06:20:00 1.4 C 94 % 0.54 C
78 28-02-2020 06:25:00 1.4 C 94 % 0.54 C
79 28-02-2020 06:30:00 1.4 C 94 % 0.54 C
80 28-02-2020 06:35:00 1.4 C 93 % 0.4 C
81 28-02-2020 06:40:00 1.4 C 93 % 0.4 C
82 28-02-2020 06:45:00 1.3 C 93 % 0.3 C
83 28-02-2020 06:50:00 1.3 C 94 % 0.44 C
84 28-02-2020 06:55:00 1.3 C 94 % 0.44 C
85 28-02-2020 07:00:00 1.3 C 94 % 0.44 C
86 28-02-2020 07:05:00 1.2 C 93 % 0.2 C
87 28-02-2020 07:10:00 1.2 C 93 % 0.2 C
88 28-02-2020 07:15:00 1.2 C 93 % 0.2 C
89 28-02-2020 07:20:00 1.1 C 93 % 0.1 C
90 28-02-2020 07:25:00 1.1 C 93 % 0.1 C
91 28-02-2020 07:30:00 1.1 C 93 % 0.1 C
92 28-02-2020 07:35:00 1.1 C 93 % 0.1 C
93 28-02-2020 07:40:00 1.2 C 93 % 0.2 C
94 28-02-2020 07:45:00 1.2 C 93 % 0.2 C
95 28-02-2020 07:50:00 1.1 C 93 % 0.1 C
96 28-02-2020 07:55:00 1.1 C 93 % 0.1 C
97 28-02-2020 08:00:00 1.1 C 93 % 0.1 C
98 28-02-2020 08:05:00 1.1 C 93 % 0.1 C
99 28-02-2020 08:10:00 1 C 93 % 0 C
100 28-02-2020 08:15:00 1.1 C 94 % 0.24 C
Sensor: Nr:Datum:Temp:Feuchte:Taupunkt:
Aussen-T/F 101 28-02-2020 08:20:00 1.1 C 94 % 0.24 C
102 28-02-2020 08:25:00 1.1 C 94 % 0.24 C
103 28-02-2020 08:30:00 1.1 C 94 % 0.24 C
104 28-02-2020 08:35:00 1.1 C 94 % 0.24 C
105 28-02-2020 08:40:00 1.2 C 94 % 0.34 C
106 28-02-2020 08:45:00 1.2 C 94 % 0.34 C
107 28-02-2020 08:50:00 1.3 C 94 % 0.44 C
108 28-02-2020 08:55:00 1.4 C 94 % 0.54 C
109 28-02-2020 09:00:00 1.5 C 94 % 0.64 C
110 28-02-2020 09:05:00 1.6 C 94 % 0.74 C
111 28-02-2020 09:10:00 1.7 C 94 % 0.84 C
112 28-02-2020 09:15:00 1.8 C 94 % 0.94 C
113 28-02-2020 09:20:00 1.9 C 94 % 1.04 C
114 28-02-2020 09:25:00 1.9 C 93 % 0.89 C
115 28-02-2020 09:30:00 2 C 93 % 0.99 C
116 28-02-2020 09:35:00 2.1 C 93 % 1.09 C
117 28-02-2020 09:40:00 2.2 C 93 % 1.19 C
118 28-02-2020 09:45:00 2.3 C 93 % 1.29 C
119 28-02-2020 09:50:00 2.3 C 92 % 1.14 C
120 28-02-2020 09:55:00 2.4 C 92 % 1.24 C
121 28-02-2020 10:00:00 2.5 C 92 % 1.34 C
122 28-02-2020 10:05:00 2.6 C 92 % 1.43 C
123 28-02-2020 10:10:00 2.7 C 91 % 1.38 C
124 28-02-2020 10:15:00 2.7 C 91 % 1.38 C
125 28-02-2020 10:20:00 2.8 C 91 % 1.48 C
Sensor: Nr:Datum:Temp:Feuchte:Taupunkt:
Aussen-T/F 126 28-02-2020 10:25:00 2.9 C 90 % 1.43 C
127 28-02-2020 10:30:00 3.1 C 90 % 1.62 C
128 28-02-2020 10:35:00 3.2 C 90 % 1.72 C
129 28-02-2020 10:40:00 3.3 C 89 % 1.67 C
130 28-02-2020 10:45:00 3.4 C 88 % 1.61 C
131 28-02-2020 10:50:00 3.4 C 88 % 1.61 C
132 28-02-2020 10:55:00 3.5 C 88 % 1.7 C
133 28-02-2020 11:00:00 3.5 C 87 % 1.55 C
134 28-02-2020 11:05:00 3.6 C 87 % 1.64 C
135 28-02-2020 11:10:00 3.6 C 87 % 1.64 C
136 28-02-2020 11:15:00 3.6 C 87 % 1.64 C
137 28-02-2020 11:20:00 3.7 C 87 % 1.74 C
138 28-02-2020 11:25:00 3.7 C 86 % 1.58 C
139 28-02-2020 11:30:00 3.8 C 86 % 1.68 C
140 28-02-2020 11:35:00 3.8 C 87 % 1.84 C
141 28-02-2020 11:40:00 3.9 C 87 % 1.94 C
142 28-02-2020 11:45:00 4 C 86 % 1.88 C
143 28-02-2020 11:50:00 4.1 C 86 % 1.97 C
144 28-02-2020 11:55:00 4.1 C 86 % 1.97 C
145 28-02-2020 12:00:00 4.2 C 86 % 2.07 C
146 28-02-2020 12:05:00 4.3 C 86 % 2.17 C
147 28-02-2020 12:10:00 4.3 C 85 % 2.01 C
148 28-02-2020 12:15:00 4.3 C 86 % 2.17 C
149 28-02-2020 12:20:00 4.3 C 86 % 2.17 C
150 28-02-2020 12:25:00 4.6 C 86 % 2.47 C
Sensor: Nr:Datum:Temp:Feuchte:Taupunkt:
Aussen-T/F 151 28-02-2020 12:30:00 4.6 C 85 % 2.3 C
152 28-02-2020 12:35:00 4.7 C 84 % 2.23 C
153 28-02-2020 12:40:00 4.7 C 84 % 2.23 C
154 28-02-2020 12:45:00 4.9 C 84 % 2.43 C
155 28-02-2020 12:50:00 5.1 C 84 % 2.63 C
156 28-02-2020 12:55:00 5.2 C 84 % 2.72 C
157 28-02-2020 13:00:00 5.4 C 84 % 2.92 C
158 28-02-2020 13:05:00 5.6 C 82 % 2.78 C
159 28-02-2020 13:10:00 5.7 C 82 % 2.87 C
160 28-02-2020 13:15:00 5.8 C 82 % 2.97 C
161 28-02-2020 13:20:00 5.9 C 81 % 2.9 C
162 28-02-2020 13:25:00 6 C 80 % 2.82 C
163 28-02-2020 13:30:00 6.1 C 79 % 2.74 C
164 28-02-2020 13:35:00 6.2 C 79 % 2.84 C
165 28-02-2020 13:40:00 6.3 C 78 % 2.75 C
166 28-02-2020 13:45:00 6.4 C 78 % 2.85 C
167 28-02-2020 13:50:00 6.6 C 77 % 2.86 C
168 28-02-2020 13:55:00 6.7 C 75 % 2.59 C
169 28-02-2020 14:00:00 6.9 C 75 % 2.78 C
170 28-02-2020 14:05:00 7.1 C 75 % 2.98 C
171 28-02-2020 14:10:00 7.3 C 75 % 3.17 C
172 28-02-2020 14:15:00 7.3 C 74 % 2.98 C
173 28-02-2020 14:20:00 7.3 C 74 % 2.98 C
174 28-02-2020 14:25:00 7.3 C 74 % 2.98 C
175 28-02-2020 14:30:00 7.4 C 73 % 2.89 C
Sensor: Nr:Datum:Temp:Feuchte:Taupunkt:
Aussen-T/F 176 28-02-2020 14:35:00 7.5 C 73 % 2.98 C
177 28-02-2020 14:40:00 7.6 C 72 % 2.88 C
178 28-02-2020 14:45:00 7.6 C 73 % 3.08 C
179 28-02-2020 14:50:00 7.6 C 72 % 2.88 C
180 28-02-2020 14:55:00 7.5 C 73 % 2.98 C
181 28-02-2020 15:00:00 7.3 C 72 % 2.6 C
182 28-02-2020 15:05:00 7.3 C 75 % 3.17 C
183 28-02-2020 15:10:00 7.4 C 75 % 3.27 C
184 28-02-2020 15:15:00 7.4 C 73 % 2.89 C
185 28-02-2020 15:20:00 7.4 C 73 % 2.89 C
186 28-02-2020 15:25:00 7.5 C 72 % 2.79 C
187 28-02-2020 15:30:00 7.6 C 73 % 3.08 C
188 28-02-2020 15:35:00 7.6 C 72 % 2.88 C
189 28-02-2020 15:40:00 7.6 C 70 % 2.49 C
190 28-02-2020 15:45:00 7.5 C 70 % 2.39 C
191 28-02-2020 15:50:00 7.4 C 71 % 2.5 C
192 28-02-2020 15:55:00 7.4 C 71 % 2.5 C
193 28-02-2020 16:00:00 7.4 C 72 % 2.69 C
194 28-02-2020 16:05:00 7.3 C 71 % 2.4 C
195 28-02-2020 16:10:00 7.3 C 74 % 2.98 C
196 28-02-2020 16:15:00 7.2 C 73 % 2.69 C
197 28-02-2020 16:20:00 7.2 C 75 % 3.07 C
198 28-02-2020 16:25:00 7.3 C 75 % 3.17 C
199 28-02-2020 16:30:00 7.2 C 75 % 3.07 C
200 28-02-2020 16:35:00 7.2 C 77 % 3.45 C
Sensor: Nr:Datum:Temp:Feuchte:Taupunkt:
Aussen-T/F 201 28-02-2020 16:40:00 7.2 C 78 % 3.63 C
202 28-02-2020 16:45:00 7.2 C 77 % 3.45 C
203 28-02-2020 16:50:00 7.1 C 79 % 3.71 C
204 28-02-2020 16:55:00 7.1 C 78 % 3.53 C
205 28-02-2020 17:00:00 7 C 80 % 3.79 C
206 28-02-2020 17:05:00 7 C 79 % 3.61 C
207 28-02-2020 17:10:00 6.9 C 81 % 3.87 C
208 28-02-2020 17:15:00 6.8 C 81 % 3.77 C
209 28-02-2020 17:20:00 6.8 C 82 % 3.95 C
210 28-02-2020 17:25:00 6.6 C 82 % 3.75 C
211 28-02-2020 17:30:00 6.4 C 82 % 3.56 C
212 28-02-2020 17:35:00 6.2 C 80 % 3.01 C
213 28-02-2020 17:40:00 6 C 81 % 2.99 C
214 28-02-2020 17:45:00 5.9 C 83 % 3.24 C
215 28-02-2020 17:50:00 5.8 C 83 % 3.14 C
216 28-02-2020 17:55:00 5.7 C 84 % 3.21 C
217 28-02-2020 18:00:00 5.5 C 84 % 3.02 C
218 28-02-2020 18:05:00 5.4 C 84 % 2.92 C
219 28-02-2020 18:10:00 5.3 C 85 % 2.99 C
220 28-02-2020 18:15:00 5.2 C 85 % 2.89 C
221 28-02-2020 18:20:00 5.1 C 85 % 2.79 C
222 28-02-2020 18:25:00 5.1 C 85 % 2.79 C
223 28-02-2020 18:30:00 5.1 C 84 % 2.63 C
224 28-02-2020 18:35:00 5.3 C 81 % 2.31 C
225 28-02-2020 18:40:00 5.5 C 82 % 2.68 C
Sensor: Nr:Datum:Temp:Feuchte:Taupunkt:
Aussen-T/F 226 28-02-2020 18:45:00 5.6 C 79 % 2.25 C
227 28-02-2020 18:50:00 5.7 C 79 % 2.35 C
228 28-02-2020 18:55:00 5.7 C 80 % 2.53 C
229 28-02-2020 19:00:00 5.7 C 81 % 2.7 C
230 28-02-2020 19:05:00 5.7 C 79 % 2.35 C
231 28-02-2020 19:10:00 5.7 C 79 % 2.35 C
232 28-02-2020 19:15:00 5.7 C 81 % 2.7 C
233 28-02-2020 19:20:00 5.6 C 76 % 1.71 C
234 28-02-2020 19:25:00 5.7 C 78 % 2.17 C
235 28-02-2020 19:30:00 5.7 C 80 % 2.53 C
236 28-02-2020 19:35:00 5.6 C 80 % 2.43 C
237 28-02-2020 19:40:00 5.5 C 78 % 1.98 C
238 28-02-2020 19:45:00 5.6 C 80 % 2.43 C
239 28-02-2020 19:50:00 5.6 C 80 % 2.43 C
240 28-02-2020 19:55:00 5.6 C 80 % 2.43 C
241 28-02-2020 20:00:00 5.5 C 81 % 2.51 C
242 28-02-2020 20:05:00 5.4 C 82 % 2.58 C
243 28-02-2020 20:10:00 5.4 C 79 % 2.06 C
244 28-02-2020 20:15:00 5.4 C 80 % 2.23 C
245 28-02-2020 20:20:00 5.5 C 81 % 2.51 C
246 28-02-2020 20:25:00 5.6 C 81 % 2.6 C
247 28-02-2020 20:30:00 5.6 C 81 % 2.6 C
248 28-02-2020 20:35:00 5.6 C 81 % 2.6 C
249 28-02-2020 20:40:00 5.6 C 81 % 2.6 C
250 28-02-2020 20:45:00 5.6 C 83 % 2.95 C
Sensor: Nr:Datum:Temp:Feuchte:Taupunkt:
Aussen-T/F 251 28-02-2020 20:50:00 5.4 C 84 % 2.92 C
252 28-02-2020 20:55:00 5.4 C 83 % 2.75 C
253 28-02-2020 21:00:00 5.3 C 85 % 2.99 C
254 28-02-2020 21:05:00 5.3 C 86 % 3.15 C
255 28-02-2020 21:10:00 5.2 C 86 % 3.05 C
256 28-02-2020 21:15:00 5.1 C 87 % 3.12 C
257 28-02-2020 21:20:00 5 C 88 % 3.18 C
258 28-02-2020 21:25:00 4.9 C 87 % 2.92 C
259 28-02-2020 21:30:00 4.9 C 88 % 3.08 C
260 28-02-2020 21:35:00 4.8 C 88 % 2.99 C
261 28-02-2020 21:40:00 4.8 C 87 % 2.82 C
262 28-02-2020 21:45:00 4.9 C 86 % 2.76 C
263 28-02-2020 21:50:00 5 C 86 % 2.86 C
264 28-02-2020 21:55:00 5.1 C 86 % 2.96 C
265 28-02-2020 22:00:00 5.1 C 86 % 2.96 C
266 28-02-2020 22:05:00 5.2 C 85 % 2.89 C
267 28-02-2020 22:10:00 5.2 C 85 % 2.89 C
268 28-02-2020 22:15:00 5.2 C 85 % 2.89 C
269 28-02-2020 22:20:00 5.2 C 86 % 3.05 C
270 28-02-2020 22:25:00 5.1 C 88 % 3.28 C
271 28-02-2020 22:30:00 5 C 89 % 3.34 C
272 28-02-2020 22:35:00 4.9 C 89 % 3.24 C
273 28-02-2020 22:40:00 4.8 C 89 % 3.14 C
274 28-02-2020 22:45:00 4.7 C 90 % 3.2 C
275 28-02-2020 22:50:00 4.7 C 91 % 3.36 C
Sensor: Nr:Datum:Temp:Feuchte:Taupunkt:
Aussen-T/F 276 28-02-2020 22:55:00 4.6 C 91 % 3.26 C
277 28-02-2020 23:00:00 4.6 C 92 % 3.42 C
278 28-02-2020 23:05:00 4.5 C 92 % 3.32 C
279 28-02-2020 23:10:00 4.4 C 92 % 3.22 C
280 28-02-2020 23:15:00 4.3 C 92 % 3.12 C
281 28-02-2020 23:20:00 4.3 C 93 % 3.27 C
282 28-02-2020 23:25:00 4.3 C 93 % 3.27 C
283 28-02-2020 23:30:00 4.3 C 93 % 3.27 C
284 28-02-2020 23:35:00 4.4 C 93 % 3.37 C
285 28-02-2020 23:40:00 4.4 C 93 % 3.37 C
286 28-02-2020 23:45:00 4.5 C 93 % 3.47 C
287 28-02-2020 23:50:00 4.5 C 93 % 3.47 C
288 28-02-2020 23:55:00 4.5 C 93 % 3.47 C

Legende:
   Min
   Max


Maximal/Minimal-Werte vom 28.02.2020 - 28.02.2020

Sensor Min Max Avg
Temp
(Aussen-T/F)
1 °C
28-02-2020  08:10:00
7.6 °C
28-02-2020  14:40:00
3.97 °C
Feuchte
(Aussen-T/F)
70 %
28-02-2020  15:40:00
95 %
28-02-2020  02:25:00
87.11 %
Taupunkt
(Aussen-T/F)
0 C
28-02-2020  08:10:00
3.95 C
28-02-2020  17:20:00
1.96 C

Die Daten stammen von einer Davis Vantage Pro 2 Wetter-Station und werden unter Linux mit der Software wview2wettercgi und aufbereitet. Alle Angaben erfolgen ohne Gewähr für ihre Vollständigkeit oder Richtigkeit.
Kontakt: Rainer Krienke krienke@uni-koblenz.de . Meine Webseiten an der Uni Koblenz oder privat.
Version: $Revision: 0.78 $